logo
Rechercher aéroport 
image banner adimage banner adimage banner ad
image banner ad

FADAWN - Dawn View

Situé à , South Africa

ICAO - , IATA -

Données fournies par Airmate  

Information générale

Coordonnées: S29°40'27" E30°28'9"
Élévation : 2165 feet MSL.
 
Voir autres Aéroports à Kwazulu-Natal

Données opérationnelles

Special qualification required
Heure actuelle UTC:
Heure actuelle locale:
Météo à : FAPM - Pietermaritzburg ( 8 km )
TAF: TAF AMD FAPM 171152Z 1710/1721 VRB03KT 7000 NSC TX25/1712Z TN10/1721Z
Voir NOTAMs / SUP AIP / TFR affectant cet aéroport [VIEW]
Fréquences de communication: [VIEW]

Pistes:

Identifiant RWYQFULongueur (ft)Largeur (ft)SurfaceLDA (ft)
11150°141166GRASS
29330°141166GRASS
02108366GRASS
20185°108366GRASS

Coordonnées de l'aéroport

Adresse: South Africa

Vue satellite de FADAWN